sensor_id;sensor_type;location;lat;lon;timestamp;temperature;humidity
9033;DHT22;4551;53.164;8.210;2023-04-15T00:01:19;8.90;99.90
9033;DHT22;4551;53.164;8.210;2023-04-15T00:03:50;9.20;99.90
9033;DHT22;4551;53.164;8.210;2023-04-15T00:06:19;8.90;99.90
9033;DHT22;4551;53.164;8.210;2023-04-15T00:08:47;8.80;99.90
9033;DHT22;4551;53.164;8.210;2023-04-15T00:11:16;8.80;99.90
9033;DHT22;4551;53.164;8.210;2023-04-15T00:13:45;8.80;99.90
9033;DHT22;4551;53.164;8.210;2023-04-15T00:16:14;8.70;99.90
9033;DHT22;4551;53.164;8.210;2023-04-15T00:18:43;8.70;99.90
9033;DHT22;4551;53.164;8.210;2023-04-15T00:21:11;8.70;99.90
9033;DHT22;4551;53.164;8.210;2023-04-15T00:23:39;8.60;99.90
9033;DHT22;4551;53.164;8.210;2023-04-15T00:26:07;8.60;99.90
9033;DHT22;4551;53.164;8.210;2023-04-15T00:28:35;9.10;99.90
9033;DHT22;4551;53.164;8.210;2023-04-15T00:31:04;8.60;99.90
9033;DHT22;4551;53.164;8.210;2023-04-15T00:33:32;8.60;99.90
9033;DHT22;4551;53.164;8.210;2023-04-15T00:36:05;8.60;99.90
9033;DHT22;4551;53.164;8.210;2023-04-15T00:38:35;8.50;99.90
9033;DHT22;4551;53.164;8.210;2023-04-15T00:41:03;8.50;99.90
9033;DHT22;4551;53.164;8.210;2023-04-15T00:43:31;8.50;99.90
9033;DHT22;4551;53.164;8.210;2023-04-15T00:45:59;8.50;99.90
9033;DHT22;4551;53.164;8.210;2023-04-15T00:48:28;8.40;99.90
9033;DHT22;4551;53.164;8.210;2023-04-15T00:50:57;8.40;99.90
9033;DHT22;4551;53.164;8.210;2023-04-15T00:53:28;8.40;99.90
9033;DHT22;4551;53.164;8.210;2023-04-15T00:55:56;8.40;99.90
9033;DHT22;4551;53.164;8.210;2023-04-15T00:58:25;8.30;99.90
9033;DHT22;4551;53.164;8.210;2023-04-15T01:00:54;8.30;99.90
9033;DHT22;4551;53.164;8.210;2023-04-15T01:03:23;8.30;99.90
9033;DHT22;4551;53.164;8.210;2023-04-15T01:05:56;8.30;99.90
9033;DHT22;4551;53.164;8.210;2023-04-15T01:08:28;8.30;99.90
9033;DHT22;4551;53.164;8.210;2023-04-15T01:10:57;8.30;99.90
9033;DHT22;4551;53.164;8.210;2023-04-15T01:13:25;8.30;99.90
9033;DHT22;4551;53.164;8.210;2023-04-15T01:15:55;8.20;99.90
9033;DHT22;4551;53.164;8.210;2023-04-15T01:18:23;8.20;99.90
9033;DHT22;4551;53.164;8.210;2023-04-15T01:20:52;8.20;99.90
9033;DHT22;4551;53.164;8.210;2023-04-15T01:23:20;8.10;99.90
9033;DHT22;4551;53.164;8.210;2023-04-15T01:25:50;8.10;99.90
9033;DHT22;4551;53.164;8.210;2023-04-15T01:28:20;8.10;99.90
9033;DHT22;4551;53.164;8.210;2023-04-15T01:30:48;8.10;99.90
9033;DHT22;4551;53.164;8.210;2023-04-15T01:33:22;8.10;99.90
9033;DHT22;4551;53.164;8.210;2023-04-15T01:36:09;8.10;99.90
9033;DHT22;4551;53.164;8.210;2023-04-15T01:38:37;8.00;99.90
9033;DHT22;4551;53.164;8.210;2023-04-15T01:41:06;8.00;99.90
9033;DHT22;4551;53.164;8.210;2023-04-15T01:43:34;8.00;99.90
9033;DHT22;4551;53.164;8.210;2023-04-15T01:46:03;8.00;99.90
9033;DHT22;4551;53.164;8.210;2023-04-15T01:48:31;8.00;99.90
9033;DHT22;4551;53.164;8.210;2023-04-15T01:51:00;8.00;99.90
9033;DHT22;4551;53.164;8.210;2023-04-15T01:53:28;8.00;99.90
9033;DHT22;4551;53.164;8.210;2023-04-15T01:55:58;7.90;99.90
9033;DHT22;4551;53.164;8.210;2023-04-15T01:58:27;7.90;99.90
9033;DHT22;4551;53.164;8.210;2023-04-15T02:00:57;7.90;99.90
9033;DHT22;4551;53.164;8.210;2023-04-15T02:03:29;7.90;99.90
9033;DHT22;4551;53.164;8.210;2023-04-15T02:05:57;7.80;99.90
9033;DHT22;4551;53.164;8.210;2023-04-15T02:08:25;7.80;99.90
9033;DHT22;4551;53.164;8.210;2023-04-15T02:10:54;7.80;99.90
9033;DHT22;4551;53.164;8.210;2023-04-15T02:13:22;7.70;99.90
9033;DHT22;4551;53.164;8.210;2023-04-15T02:15:53;7.70;99.90
9033;DHT22;4551;53.164;8.210;2023-04-15T02:18:24;7.70;99.90
9033;DHT22;4551;53.164;8.210;2023-04-15T02:20:52;7.70;99.90
9033;DHT22;4551;53.164;8.210;2023-04-15T02:23:26;7.70;99.90
9033;DHT22;4551;53.164;8.210;2023-04-15T02:25:56;7.60;99.90
9033;DHT22;4551;53.164;8.210;2023-04-15T02:28:28;7.60;99.90
9033;DHT22;4551;53.164;8.210;2023-04-15T02:30:58;7.60;99.90
9033;DHT22;4551;53.164;8.210;2023-04-15T02:33:29;7.60;99.90
9033;DHT22;4551;53.164;8.210;2023-04-15T02:35:59;7.60;99.90
9033;DHT22;4551;53.164;8.210;2023-04-15T02:38:29;7.60;99.90
9033;DHT22;4551;53.164;8.210;2023-04-15T02:40:57;7.60;99.90
9033;DHT22;4551;53.164;8.210;2023-04-15T02:43:26;7.60;99.90
9033;DHT22;4551;53.164;8.210;2023-04-15T02:45:54;7.50;99.90
9033;DHT22;4551;53.164;8.210;2023-04-15T02:48:23;7.50;99.90
9033;DHT22;4551;53.164;8.210;2023-04-15T02:50:51;7.50;99.90
9033;DHT22;4551;53.164;8.210;2023-04-15T02:53:23;7.50;99.90
9033;DHT22;4551;53.164;8.210;2023-04-15T02:55:52;7.50;99.90
9033;DHT22;4551;53.164;8.210;2023-04-15T02:58:22;7.50;99.90
9033;DHT22;4551;53.164;8.210;2023-04-15T03:00:51;7.40;99.90
9033;DHT22;4551;53.164;8.210;2023-04-15T03:03:19;7.40;99.90
9033;DHT22;4551;53.164;8.210;2023-04-15T03:05:48;7.40;99.90
9033;DHT22;4551;53.164;8.210;2023-04-15T03:08:21;7.40;99.90
9033;DHT22;4551;53.164;8.210;2023-04-15T03:10:49;7.30;99.90
9033;DHT22;4551;53.164;8.210;2023-04-15T03:13:18;7.30;99.90
9033;DHT22;4551;53.164;8.210;2023-04-15T03:15:50;7.20;99.90
9033;DHT22;4551;53.164;8.210;2023-04-15T03:18:18;7.20;99.90
9033;DHT22;4551;53.164;8.210;2023-04-15T03:20:48;7.20;99.90
9033;DHT22;4551;53.164;8.210;2023-04-15T03:23:18;7.20;99.90
9033;DHT22;4551;53.164;8.210;2023-04-15T03:25:46;7.20;99.90
9033;DHT22;4551;53.164;8.210;2023-04-15T03:28:22;7.20;99.90
9033;DHT22;4551;53.164;8.210;2023-04-15T03:30:50;7.20;99.90
9033;DHT22;4551;53.164;8.210;2023-04-15T03:33:18;7.20;99.90
9033;DHT22;4551;53.164;8.210;2023-04-15T03:35:46;7.20;99.90
9033;DHT22;4551;53.164;8.210;2023-04-15T03:38:16;7.10;99.90
9033;DHT22;4551;53.164;8.210;2023-04-15T03:40:45;7.10;99.90
9033;DHT22;4551;53.164;8.210;2023-04-15T03:43:13;7.10;99.90
9033;DHT22;4551;53.164;8.210;2023-04-15T03:45:41;7.00;99.90
9033;DHT22;4551;53.164;8.210;2023-04-15T03:48:09;7.00;99.90
9033;DHT22;4551;53.164;8.210;2023-04-15T03:50:43;6.90;99.90
9033;DHT22;4551;53.164;8.210;2023-04-15T03:53:11;6.90;99.90
9033;DHT22;4551;53.164;8.210;2023-04-15T03:55:41;6.90;99.90
9033;DHT22;4551;53.164;8.210;2023-04-15T03:58:11;6.90;99.90
9033;DHT22;4551;53.164;8.210;2023-04-15T04:00:40;6.90;99.90
9033;DHT22;4551;53.164;8.210;2023-04-15T04:03:08;6.80;99.90
9033;DHT22;4551;53.164;8.210;2023-04-15T04:05:36;6.80;99.90
9033;DHT22;4551;53.164;8.210;2023-04-15T04:08:07;6.80;99.90
9033;DHT22;4551;53.164;8.210;2023-04-15T04:10:43;6.80;99.90
9033;DHT22;4551;53.164;8.210;2023-04-15T04:13:15;7.30;99.90
9033;DHT22;4551;53.164;8.210;2023-04-15T04:15:43;6.80;99.90
9033;DHT22;4551;53.164;8.210;2023-04-15T04:18:11;6.80;99.90
9033;DHT22;4551;53.164;8.210;2023-04-15T04:20:39;6.80;99.90
9033;DHT22;4551;53.164;8.210;2023-04-15T04:23:07;6.80;99.90
9033;DHT22;4551;53.164;8.210;2023-04-15T04:25:38;6.80;99.90
9033;DHT22;4551;53.164;8.210;2023-04-15T04:28:07;6.80;99.90
9033;DHT22;4551;53.164;8.210;2023-04-15T04:30:35;6.80;99.90
9033;DHT22;4551;53.164;8.210;2023-04-15T04:33:03;6.80;99.90
9033;DHT22;4551;53.164;8.210;2023-04-15T04:35:31;6.80;99.90
9033;DHT22;4551;53.164;8.210;2023-04-15T04:38:00;6.80;99.90
9033;DHT22;4551;53.164;8.210;2023-04-15T04:40:28;6.80;99.90
9033;DHT22;4551;53.164;8.210;2023-04-15T04:42:56;6.90;99.90
9033;DHT22;4551;53.164;8.210;2023-04-15T04:45:26;6.90;99.90
9033;DHT22;4551;53.164;8.210;2023-04-15T04:47:54;6.90;99.90
9033;DHT22;4551;53.164;8.210;2023-04-15T04:50:22;6.90;99.90
9033;DHT22;4551;53.164;8.210;2023-04-15T04:52:50;6.90;99.90
9033;DHT22;4551;53.164;8.210;2023-04-15T04:55:20;7.00;99.90
9033;DHT22;4551;53.164;8.210;2023-04-15T04:57:48;7.00;99.90
9033;DHT22;4551;53.164;8.210;2023-04-15T05:00:16;7.00;99.90
9033;DHT22;4551;53.164;8.210;2023-04-15T05:02:46;7.00;99.90
9033;DHT22;4551;53.164;8.210;2023-04-15T05:05:14;7.10;99.90
9033;DHT22;4551;53.164;8.210;2023-04-15T05:07:43;7.00;99.90
9033;DHT22;4551;53.164;8.210;2023-04-15T05:10:11;7.10;99.90
9033;DHT22;4551;53.164;8.210;2023-04-15T05:12:43;7.10;99.90
9033;DHT22;4551;53.164;8.210;2023-04-15T05:15:11;7.10;99.90
9033;DHT22;4551;53.164;8.210;2023-04-15T05:17:39;7.10;99.90
9033;DHT22;4551;53.164;8.210;2023-04-15T05:20:09;7.10;99.90
9033;DHT22;4551;53.164;8.210;2023-04-15T05:22:38;7.20;99.90
9033;DHT22;4551;53.164;8.210;2023-04-15T05:25:08;7.20;99.90
9033;DHT22;4551;53.164;8.210;2023-04-15T05:27:38;7.20;99.90
9033;DHT22;4551;53.164;8.210;2023-04-15T05:30:09;7.30;99.90
9033;DHT22;4551;53.164;8.210;2023-04-15T05:32:39;7.20;99.90
9033;DHT22;4551;53.164;8.210;2023-04-15T05:35:10;7.30;99.90
9033;DHT22;4551;53.164;8.210;2023-04-15T05:37:38;7.30;99.90
9033;DHT22;4551;53.164;8.210;2023-04-15T05:40:09;7.30;99.90
9033;DHT22;4551;53.164;8.210;2023-04-15T05:42:39;7.40;99.90
9033;DHT22;4551;53.164;8.210;2023-04-15T05:45:07;7.40;99.90
9033;DHT22;4551;53.164;8.210;2023-04-15T05:47:35;7.40;99.90
9033;DHT22;4551;53.164;8.210;2023-04-15T05:50:04;7.40;99.90
9033;DHT22;4551;53.164;8.210;2023-04-15T05:52:34;7.40;99.90
9033;DHT22;4551;53.164;8.210;2023-04-15T05:55:05;7.40;99.90
9033;DHT22;4551;53.164;8.210;2023-04-15T05:57:33;7.50;99.90
9033;DHT22;4551;53.164;8.210;2023-04-15T06:00:01;7.50;99.90
9033;DHT22;4551;53.164;8.210;2023-04-15T06:02:30;7.50;99.90
9033;DHT22;4551;53.164;8.210;2023-04-15T06:04:59;7.50;99.90
9033;DHT22;4551;53.164;8.210;2023-04-15T06:07:27;7.50;99.90
9033;DHT22;4551;53.164;8.210;2023-04-15T06:09:56;7.50;99.90
9033;DHT22;4551;53.164;8.210;2023-04-15T06:12:24;7.50;99.90
9033;DHT22;4551;53.164;8.210;2023-04-15T06:14:53;7.50;99.90
9033;DHT22;4551;53.164;8.210;2023-04-15T06:17:26;8.40;99.90
9033;DHT22;4551;53.164;8.210;2023-04-15T06:19:54;7.50;99.90
9033;DHT22;4551;53.164;8.210;2023-04-15T06:22:22;7.60;99.90
9033;DHT22;4551;53.164;8.210;2023-04-15T06:24:50;7.60;99.90
9033;DHT22;4551;53.164;8.210;2023-04-15T06:27:20;7.60;99.90
9033;DHT22;4551;53.164;8.210;2023-04-15T06:29:56;7.70;99.90
9033;DHT22;4551;53.164;8.210;2023-04-15T06:32:24;7.70;99.90
9033;DHT22;4551;53.164;8.210;2023-04-15T06:34:53;7.70;99.90
9033;DHT22;4551;53.164;8.210;2023-04-15T06:37:21;7.70;99.90
9033;DHT22;4551;53.164;8.210;2023-04-15T06:39:49;7.90;99.90
9033;DHT22;4551;53.164;8.210;2023-04-15T06:42:20;8.00;99.90
9033;DHT22;4551;53.164;8.210;2023-04-15T06:44:49;8.00;99.90
9033;DHT22;4551;53.164;8.210;2023-04-15T06:47:17;8.00;99.90
9033;DHT22;4551;53.164;8.210;2023-04-15T06:49:45;8.00;99.90
9033;DHT22;4551;53.164;8.210;2023-04-15T06:52:13;8.00;99.90
9033;DHT22;4551;53.164;8.210;2023-04-15T06:54:42;8.00;99.90
9033;DHT22;4551;53.164;8.210;2023-04-15T06:57:10;8.10;99.90
9033;DHT22;4551;53.164;8.210;2023-04-15T06:59:39;8.10;99.90
9033;DHT22;4551;53.164;8.210;2023-04-15T07:02:09;8.10;99.90
9033;DHT22;4551;53.164;8.210;2023-04-15T07:04:39;8.20;99.90
9033;DHT22;4551;53.164;8.210;2023-04-15T07:07:09;8.20;99.90
9033;DHT22;4551;53.164;8.210;2023-04-15T07:09:42;8.20;99.90
9033;DHT22;4551;53.164;8.210;2023-04-15T07:12:10;8.20;99.90
9033;DHT22;4551;53.164;8.210;2023-04-15T07:14:40;8.30;99.90
9033;DHT22;4551;53.164;8.210;2023-04-15T07:17:09;8.30;99.90
9033;DHT22;4551;53.164;8.210;2023-04-15T07:19:37;8.30;99.90
9033;DHT22;4551;53.164;8.210;2023-04-15T07:22:06;8.30;99.90
9033;DHT22;4551;53.164;8.210;2023-04-15T07:24:34;8.30;99.90
9033;DHT22;4551;53.164;8.210;2023-04-15T07:27:03;8.30;99.90
9033;DHT22;4551;53.164;8.210;2023-04-15T07:29:34;8.30;99.90
9033;DHT22;4551;53.164;8.210;2023-04-15T07:32:05;8.30;99.90
9033;DHT22;4551;53.164;8.210;2023-04-15T07:34:33;8.30;99.90
9033;DHT22;4551;53.164;8.210;2023-04-15T07:37:04;8.40;99.90
9033;DHT22;4551;53.164;8.210;2023-04-15T07:39:33;8.40;99.90
9033;DHT22;4551;53.164;8.210;2023-04-15T07:42:01;8.40;99.90
9033;DHT22;4551;53.164;8.210;2023-04-15T07:44:30;8.40;99.90
9033;DHT22;4551;53.164;8.210;2023-04-15T07:46:58;8.40;99.90
9033;DHT22;4551;53.164;8.210;2023-04-15T07:49:29;8.40;99.90
9033;DHT22;4551;53.164;8.210;2023-04-15T07:51:57;8.40;99.90
9033;DHT22;4551;53.164;8.210;2023-04-15T07:54:28;8.40;99.90
9033;DHT22;4551;53.164;8.210;2023-04-15T07:56:58;8.40;99.90
9033;DHT22;4551;53.164;8.210;2023-04-15T07:59:28;8.40;99.90
9033;DHT22;4551;53.164;8.210;2023-04-15T08:01:56;8.40;99.90
9033;DHT22;4551;53.164;8.210;2023-04-15T08:04:25;8.40;99.90
9033;DHT22;4551;53.164;8.210;2023-04-15T08:06:54;8.40;99.90
9033;DHT22;4551;53.164;8.210;2023-04-15T08:09:23;8.50;99.90
9033;DHT22;4551;53.164;8.210;2023-04-15T08:11:52;8.50;99.90
9033;DHT22;4551;53.164;8.210;2023-04-15T08:14:20;8.50;99.90
9033;DHT22;4551;53.164;8.210;2023-04-15T08:16:51;8.60;99.90
9033;DHT22;4551;53.164;8.210;2023-04-15T08:19:19;8.60;99.90
9033;DHT22;4551;53.164;8.210;2023-04-15T08:21:47;8.60;99.90
9033;DHT22;4551;53.164;8.210;2023-04-15T08:24:17;8.60;99.90
9033;DHT22;4551;53.164;8.210;2023-04-15T08:26:47;8.60;99.90
9033;DHT22;4551;53.164;8.210;2023-04-15T08:29:15;8.70;99.90
9033;DHT22;4551;53.164;8.210;2023-04-15T08:31:43;8.70;99.90
9033;DHT22;4551;53.164;8.210;2023-04-15T08:34:14;8.70;99.90
9033;DHT22;4551;53.164;8.210;2023-04-15T08:36:42;8.70;99.90
9033;DHT22;4551;53.164;8.210;2023-04-15T08:39:11;8.70;99.90
9033;DHT22;4551;53.164;8.210;2023-04-15T08:41:43;8.60;99.90
9033;DHT22;4551;53.164;8.210;2023-04-15T08:44:17;8.60;99.90
9033;DHT22;4551;53.164;8.210;2023-04-15T08:46:46;8.70;99.90
9033;DHT22;4551;53.164;8.210;2023-04-15T08:49:14;8.70;99.90
9033;DHT22;4551;53.164;8.210;2023-04-15T08:51:44;8.70;99.90
9033;DHT22;4551;53.164;8.210;2023-04-15T08:54:12;8.70;99.90
9033;DHT22;4551;53.164;8.210;2023-04-15T08:56:41;8.70;99.90
9033;DHT22;4551;53.164;8.210;2023-04-15T08:59:10;8.60;99.90
9033;DHT22;4551;53.164;8.210;2023-04-15T09:01:39;8.60;99.90
9033;DHT22;4551;53.164;8.210;2023-04-15T09:04:07;8.60;99.90
9033;DHT22;4551;53.164;8.210;2023-04-15T09:06:35;8.60;99.90
9033;DHT22;4551;53.164;8.210;2023-04-15T09:09:03;8.60;99.90
9033;DHT22;4551;53.164;8.210;2023-04-15T09:11:32;8.60;99.90
9033;DHT22;4551;53.164;8.210;2023-04-15T09:14:01;8.60;99.90
9033;DHT22;4551;53.164;8.210;2023-04-15T09:16:29;8.60;99.90
9033;DHT22;4551;53.164;8.210;2023-04-15T09:18:58;8.70;99.90
9033;DHT22;4551;53.164;8.210;2023-04-15T09:21:26;8.70;99.90
9033;DHT22;4551;53.164;8.210;2023-04-15T09:23:56;8.70;99.90
9033;DHT22;4551;53.164;8.210;2023-04-15T09:26:31;8.80;99.90
9033;DHT22;4551;53.164;8.210;2023-04-15T09:29:03;8.80;99.90
9033;DHT22;4551;53.164;8.210;2023-04-15T09:31:35;8.80;99.90
9033;DHT22;4551;53.164;8.210;2023-04-15T09:34:03;8.80;99.90
9033;DHT22;4551;53.164;8.210;2023-04-15T09:36:37;8.80;99.90
9033;DHT22;4551;53.164;8.210;2023-04-15T09:39:05;8.80;99.90
9033;DHT22;4551;53.164;8.210;2023-04-15T09:41:34;8.80;99.90
9033;DHT22;4551;53.164;8.210;2023-04-15T09:44:04;8.80;99.90
9033;DHT22;4551;53.164;8.210;2023-04-15T09:46:41;8.80;99.90
9033;DHT22;4551;53.164;8.210;2023-04-15T09:49:10;8.80;99.90
9033;DHT22;4551;53.164;8.210;2023-04-15T09:51:39;8.80;99.90
9033;DHT22;4551;53.164;8.210;2023-04-15T09:54:17;8.80;99.90
9033;DHT22;4551;53.164;8.210;2023-04-15T09:56:46;8.80;99.90
9033;DHT22;4551;53.164;8.210;2023-04-15T09:59:18;8.80;99.90
9033;DHT22;4551;53.164;8.210;2023-04-15T10:01:47;8.80;99.90
9033;DHT22;4551;53.164;8.210;2023-04-15T10:04:17;8.80;99.90
9033;DHT22;4551;53.164;8.210;2023-04-15T10:06:45;8.80;99.90
9033;DHT22;4551;53.164;8.210;2023-04-15T10:09:14;8.80;99.90
9033;DHT22;4551;53.164;8.210;2023-04-15T10:11:43;8.80;99.90
9033;DHT22;4551;53.164;8.210;2023-04-15T10:14:13;8.80;99.90
9033;DHT22;4551;53.164;8.210;2023-04-15T10:16:46;8.80;99.90
9033;DHT22;4551;53.164;8.210;2023-04-15T10:19:15;8.80;99.90
9033;DHT22;4551;53.164;8.210;2023-04-15T10:21:48;8.80;99.90
9033;DHT22;4551;53.164;8.210;2023-04-15T10:24:16;8.80;99.90
9033;DHT22;4551;53.164;8.210;2023-04-15T10:26:44;8.70;99.90
9033;DHT22;4551;53.164;8.210;2023-04-15T10:29:13;8.80;99.90
9033;DHT22;4551;53.164;8.210;2023-04-15T10:31:43;8.80;99.90
9033;DHT22;4551;53.164;8.210;2023-04-15T10:34:13;8.80;99.90
9033;DHT22;4551;53.164;8.210;2023-04-15T10:36:41;8.80;99.90
9033;DHT22;4551;53.164;8.210;2023-04-15T10:42:06;8.90;99.90
9033;DHT22;4551;53.164;8.210;2023-04-15T10:44:34;8.90;99.90
9033;DHT22;4551;53.164;8.210;2023-04-15T10:47:09;8.90;99.90
9033;DHT22;4551;53.164;8.210;2023-04-15T10:49:48;8.90;99.90
9033;DHT22;4551;53.164;8.210;2023-04-15T10:52:20;9.00;99.90
9033;DHT22;4551;53.164;8.210;2023-04-15T10:54:50;9.00;99.90
9033;DHT22;4551;53.164;8.210;2023-04-15T10:57:33;9.00;99.90
9033;DHT22;4551;53.164;8.210;2023-04-15T11:00:13;9.10;99.90
9033;DHT22;4551;53.164;8.210;2023-04-15T11:02:42;9.10;99.90
9033;DHT22;4551;53.164;8.210;2023-04-15T11:05:13;9.10;99.90
9033;DHT22;4551;53.164;8.210;2023-04-15T11:07:51;9.10;99.90
9033;DHT22;4551;53.164;8.210;2023-04-15T11:13:21;9.20;99.90
9033;DHT22;4551;53.164;8.210;2023-04-15T11:15:52;9.10;99.90
9033;DHT22;4551;53.164;8.210;2023-04-15T11:18:24;9.20;99.90
9033;DHT22;4551;53.164;8.210;2023-04-15T11:20:56;9.10;99.90
9033;DHT22;4551;53.164;8.210;2023-04-15T11:23:31;9.10;99.90
9033;DHT22;4551;53.164;8.210;2023-04-15T11:26:02;9.10;99.90
9033;DHT22;4551;53.164;8.210;2023-04-15T11:28:31;9.10;99.90
9033;DHT22;4551;53.164;8.210;2023-04-15T11:31:04;9.10;99.90
9033;DHT22;4551;53.164;8.210;2023-04-15T11:33:33;9.10;99.90
9033;DHT22;4551;53.164;8.210;2023-04-15T11:36:02;9.10;99.90
9033;DHT22;4551;53.164;8.210;2023-04-15T11:38:30;9.00;99.90
9033;DHT22;4551;53.164;8.210;2023-04-15T11:41:02;9.00;99.90
9033;DHT22;4551;53.164;8.210;2023-04-15T11:43:30;9.00;99.90
9033;DHT22;4551;53.164;8.210;2023-04-15T11:46:01;9.00;99.90
9033;DHT22;4551;53.164;8.210;2023-04-15T11:48:30;9.00;99.90
9033;DHT22;4551;53.164;8.210;2023-04-15T11:50:58;8.90;99.90
9033;DHT22;4551;53.164;8.210;2023-04-15T11:53:36;8.90;99.90
9033;DHT22;4551;53.164;8.210;2023-04-15T11:56:05;8.90;99.90
9033;DHT22;4551;53.164;8.210;2023-04-15T11:58:33;8.90;99.90
9033;DHT22;4551;53.164;8.210;2023-04-15T12:01:03;8.90;99.90
9033;DHT22;4551;53.164;8.210;2023-04-15T12:03:35;8.80;99.90
9033;DHT22;4551;53.164;8.210;2023-04-15T12:06:05;8.80;99.90
9033;DHT22;4551;53.164;8.210;2023-04-15T12:08:55;8.60;99.90
9033;DHT22;4551;53.164;8.210;2023-04-15T12:11:31;8.80;99.90
9033;DHT22;4551;53.164;8.210;2023-04-15T12:14:02;8.70;99.90
9033;DHT22;4551;53.164;8.210;2023-04-15T12:16:35;8.70;99.90
9033;DHT22;4551;53.164;8.210;2023-04-15T12:19:15;8.80;99.90
9033;DHT22;4551;53.164;8.210;2023-04-15T12:21:45;8.80;99.90
9033;DHT22;4551;53.164;8.210;2023-04-15T12:24:20;8.80;99.90
9033;DHT22;4551;53.164;8.210;2023-04-15T12:26:49;8.80;99.90
9033;DHT22;4551;53.164;8.210;2023-04-15T12:29:18;8.80;99.90
9033;DHT22;4551;53.164;8.210;2023-04-15T12:31:52;8.80;99.90
9033;DHT22;4551;53.164;8.210;2023-04-15T12:34:30;8.90;99.90
9033;DHT22;4551;53.164;8.210;2023-04-15T12:36:59;8.90;99.90
9033;DHT22;4551;53.164;8.210;2023-04-15T12:39:29;8.90;99.90
9033;DHT22;4551;53.164;8.210;2023-04-15T12:41:58;8.90;99.90
9033;DHT22;4551;53.164;8.210;2023-04-15T12:44:29;9.00;99.90
9033;DHT22;4551;53.164;8.210;2023-04-15T12:46:57;9.00;99.90
9033;DHT22;4551;53.164;8.210;2023-04-15T12:49:27;9.00;99.90
9033;DHT22;4551;53.164;8.210;2023-04-15T12:51:56;9.10;99.90
9033;DHT22;4551;53.164;8.210;2023-04-15T12:54:27;9.10;99.90
9033;DHT22;4551;53.164;8.210;2023-04-15T12:56:57;9.00;99.90
9033;DHT22;4551;53.164;8.210;2023-04-15T12:59:25;9.00;99.90
9033;DHT22;4551;53.164;8.210;2023-04-15T13:01:53;9.00;99.90
9033;DHT22;4551;53.164;8.210;2023-04-15T13:04:22;9.00;99.90
9033;DHT22;4551;53.164;8.210;2023-04-15T13:06:50;9.00;99.90
9033;DHT22;4551;53.164;8.210;2023-04-15T13:09:18;9.00;99.90
9033;DHT22;4551;53.164;8.210;2023-04-15T13:11:47;9.00;99.90
9033;DHT22;4551;53.164;8.210;2023-04-15T13:14:17;9.00;99.90
9033;DHT22;4551;53.164;8.210;2023-04-15T13:16:45;9.00;99.90
9033;DHT22;4551;53.164;8.210;2023-04-15T13:19:13;9.00;99.90
9033;DHT22;4551;53.164;8.210;2023-04-15T13:21:41;9.00;99.90
9033;DHT22;4551;53.164;8.210;2023-04-15T13:24:12;9.10;99.90
9033;DHT22;4551;53.164;8.210;2023-04-15T13:26:44;9.10;99.90
9033;DHT22;4551;53.164;8.210;2023-04-15T13:29:22;9.00;99.90
9033;DHT22;4551;53.164;8.210;2023-04-15T13:31:50;9.10;99.90
9033;DHT22;4551;53.164;8.210;2023-04-15T13:34:21;9.00;99.90
9033;DHT22;4551;53.164;8.210;2023-04-15T13:36:49;9.10;99.90
9033;DHT22;4551;53.164;8.210;2023-04-15T13:39:17;9.10;99.90
9033;DHT22;4551;53.164;8.210;2023-04-15T13:41:45;9.10;99.90
9033;DHT22;4551;53.164;8.210;2023-04-15T13:44:19;9.10;99.90
9033;DHT22;4551;53.164;8.210;2023-04-15T13:46:48;9.10;99.90
9033;DHT22;4551;53.164;8.210;2023-04-15T13:49:16;9.10;99.90
9033;DHT22;4551;53.164;8.210;2023-04-15T13:51:44;9.10;99.90
9033;DHT22;4551;53.164;8.210;2023-04-15T13:54:14;9.10;99.90
9033;DHT22;4551;53.164;8.210;2023-04-15T13:56:42;9.10;99.90
9033;DHT22;4551;53.164;8.210;2023-04-15T13:59:10;9.10;99.90
9033;DHT22;4551;53.164;8.210;2023-04-15T14:01:44;9.20;99.90
9033;DHT22;4551;53.164;8.210;2023-04-15T14:04:15;9.10;99.90
9033;DHT22;4551;53.164;8.210;2023-04-15T14:06:43;9.20;99.90
9033;DHT22;4551;53.164;8.210;2023-04-15T14:09:11;9.20;99.90
9033;DHT22;4551;53.164;8.210;2023-04-15T14:11:39;9.20;99.90
9033;DHT22;4551;53.164;8.210;2023-04-15T14:14:08;9.30;99.90
9033;DHT22;4551;53.164;8.210;2023-04-15T14:16:36;9.30;99.90
9033;DHT22;4551;53.164;8.210;2023-04-15T14:19:05;9.40;99.90
9033;DHT22;4551;53.164;8.210;2023-04-15T14:21:34;9.40;99.90
9033;DHT22;4551;53.164;8.210;2023-04-15T14:24:02;9.50;99.90
9033;DHT22;4551;53.164;8.210;2023-04-15T14:26:30;9.60;99.90
9033;DHT22;4551;53.164;8.210;2023-04-15T14:28:58;9.70;99.90
9033;DHT22;4551;53.164;8.210;2023-04-15T14:31:26;9.80;99.90
9033;DHT22;4551;53.164;8.210;2023-04-15T14:33:55;9.90;99.90
9033;DHT22;4551;53.164;8.210;2023-04-15T14:36:32;10.10;99.90
9033;DHT22;4551;53.164;8.210;2023-04-15T14:39:03;10.20;99.90
9033;DHT22;4551;53.164;8.210;2023-04-15T14:44:00;10.40;99.90
9033;DHT22;4551;53.164;8.210;2023-04-15T14:46:28;10.50;99.90
9033;DHT22;4551;53.164;8.210;2023-04-15T14:48:56;10.50;99.90
9033;DHT22;4551;53.164;8.210;2023-04-15T14:51:25;10.50;99.90
9033;DHT22;4551;53.164;8.210;2023-04-15T14:53:58;10.50;99.90
9033;DHT22;4551;53.164;8.210;2023-04-15T14:56:26;10.50;99.90
9033;DHT22;4551;53.164;8.210;2023-04-15T14:58:54;10.50;99.90
9033;DHT22;4551;53.164;8.210;2023-04-15T15:01:22;10.50;99.90
9033;DHT22;4551;53.164;8.210;2023-04-15T15:03:50;10.60;99.90
9033;DHT22;4551;53.164;8.210;2023-04-15T15:06:19;10.60;99.90
9033;DHT22;4551;53.164;8.210;2023-04-15T15:08:47;10.70;99.90
9033;DHT22;4551;53.164;8.210;2023-04-15T15:11:16;10.70;99.90
9033;DHT22;4551;53.164;8.210;2023-04-15T15:13:45;10.90;99.90
9033;DHT22;4551;53.164;8.210;2023-04-15T15:16:13;10.90;99.90
9033;DHT22;4551;53.164;8.210;2023-04-15T15:18:41;11.00;99.90
9033;DHT22;4551;53.164;8.210;2023-04-15T15:21:09;11.10;99.90
9033;DHT22;4551;53.164;8.210;2023-04-15T15:23:43;11.20;99.90
9033;DHT22;4551;53.164;8.210;2023-04-15T15:26:14;11.20;99.90
9033;DHT22;4551;53.164;8.210;2023-04-15T15:28:43;11.10;99.90
9033;DHT22;4551;53.164;8.210;2023-04-15T15:31:13;11.30;99.90
9033;DHT22;4551;53.164;8.210;2023-04-15T15:33:41;11.40;99.90
9033;DHT22;4551;53.164;8.210;2023-04-15T15:36:09;11.40;99.90
9033;DHT22;4551;53.164;8.210;2023-04-15T15:38:38;11.50;99.90
9033;DHT22;4551;53.164;8.210;2023-04-15T15:41:07;11.80;99.90
9033;DHT22;4551;53.164;8.210;2023-04-15T15:43:35;11.80;99.90
9033;DHT22;4551;53.164;8.210;2023-04-15T15:46:04;11.70;99.90
9033;DHT22;4551;53.164;8.210;2023-04-15T15:48:33;11.80;99.90
9033;DHT22;4551;53.164;8.210;2023-04-15T15:51:01;11.60;99.90
9033;DHT22;4551;53.164;8.210;2023-04-15T15:53:30;11.50;99.90
9033;DHT22;4551;53.164;8.210;2023-04-15T15:55:58;11.40;99.90
9033;DHT22;4551;53.164;8.210;2023-04-15T15:58:26;11.50;99.90
9033;DHT22;4551;53.164;8.210;2023-04-15T16:00:58;11.40;99.90
9033;DHT22;4551;53.164;8.210;2023-04-15T16:03:31;11.40;99.90
9033;DHT22;4551;53.164;8.210;2023-04-15T16:05:59;11.30;99.90
9033;DHT22;4551;53.164;8.210;2023-04-15T16:08:27;11.30;99.90
9033;DHT22;4551;53.164;8.210;2023-04-15T16:10:55;11.30;99.90
9033;DHT22;4551;53.164;8.210;2023-04-15T16:13:26;11.20;99.90
9033;DHT22;4551;53.164;8.210;2023-04-15T16:15:55;11.20;99.90
9033;DHT22;4551;53.164;8.210;2023-04-15T16:18:23;11.10;99.90
9033;DHT22;4551;53.164;8.210;2023-04-15T16:20:52;11.10;99.90
9033;DHT22;4551;53.164;8.210;2023-04-15T16:23:20;11.10;99.90
9033;DHT22;4551;53.164;8.210;2023-04-15T16:25:49;11.00;99.90
9033;DHT22;4551;53.164;8.210;2023-04-15T16:28:17;10.90;99.90
9033;DHT22;4551;53.164;8.210;2023-04-15T16:30:53;10.90;99.90
9033;DHT22;4551;53.164;8.210;2023-04-15T16:33:21;10.80;99.90
9033;DHT22;4551;53.164;8.210;2023-04-15T16:35:49;10.80;99.90
9033;DHT22;4551;53.164;8.210;2023-04-15T16:38:19;10.80;99.90
9033;DHT22;4551;53.164;8.210;2023-04-15T16:40:47;10.80;99.90